Time;durP1;ratioP1;P1;durP2;ratioP2;P2;SDS_P1;SDS_P2;PMS_P1;PMS_P2;Temp;Humidity;BMP_temperature;BMP_pressure;BME280_temperature;BME280_humidity;BME280_pressure;Samples;Min_cycle;Max_cycle;Signal;HPM_P1;HPM_P2
2021/01/11 00:02:23;;;;;;;123.63;97.38;;;15.50;99.90;;;;;;5075940;28;20020;-26
2021/01/11 00:04:49;;;;;;;122.45;98.53;;;15.50;99.90;;;;;;5075756;28;20470;-26
2021/01/11 00:07:15;;;;;;;120.72;97.63;;;15.50;99.90;;;;;;5075526;28;20032;-26
2021/01/11 00:09:41;;;;;;;120.05;95.07;;;15.50;99.90;;;;;;5075781;28;20028;-26
2021/01/11 00:12:07;;;;;;;121.53;95.88;;;15.40;99.90;;;;;;5075376;28;20036;-26
2021/01/11 00:14:33;;;;;;;121.00;94.47;;;15.40;99.90;;;;;;5075663;28;20531;-26
2021/01/11 00:16:59;;;;;;;116.97;94.43;;;15.40;99.90;;;;;;5075723;28;20029;-26
2021/01/11 00:19:25;;;;;;;118.47;95.03;;;15.30;99.90;;;;;;5073978;28;20032;-26
2021/01/11 00:21:51;;;;;;;115.78;93.90;;;15.40;99.90;;;;;;5075634;28;20029;-26
2021/01/11 00:24:17;;;;;;;118.18;92.72;;;15.30;99.90;;;;;;5074942;28;20031;-26
2021/01/11 00:26:51;;;;;;;114.88;91.57;;;15.30;99.90;;;;;;5075462;28;20103;-26
2021/01/11 00:29:18;;;;;;;114.90;92.18;;;15.30;99.90;;;;;;5074933;28;20082;-26
2021/01/11 00:31:44;;;;;;;112.72;89.50;;;15.30;99.90;;;;;;5075122;28;20056;-26
2021/01/11 00:34:09;;;;;;;110.47;87.72;;;15.20;99.90;;;;;;5075113;28;20025;-26
2021/01/11 00:36:35;;;;;;;110.03;89.43;;;15.20;99.90;;;;;;5073893;28;20048;-26
2021/01/11 00:39:01;;;;;;;109.50;86.15;;;15.20;99.90;;;;;;5074907;28;20527;-26
2021/01/11 00:41:27;;;;;;;109.13;87.45;;;15.20;99.90;;;;;;5075260;28;20568;-26
2021/01/11 00:43:53;;;;;;;107.07;85.45;;;15.20;99.90;;;;;;5067606;28;20036;-26
2021/01/11 00:46:27;;;;;;;108.50;85.65;;;15.20;99.90;;;;;;5074376;28;20028;-26
2021/01/11 00:48:53;;;;;;;107.22;83.70;;;15.10;99.90;;;;;;5074692;28;20034;-26
2021/01/11 00:51:20;;;;;;;107.60;84.03;;;15.10;99.90;;;;;;5072841;28;20032;-27
2021/01/11 00:53:46;;;;;;;106.18;84.00;;;15.10;99.90;;;;;;5074537;28;20028;-27
2021/01/11 00:56:17;;;;;;;107.30;84.72;;;15.10;99.90;;;;;;5073966;28;20028;-27
2021/01/11 00:58:44;;;;;;;103.60;81.53;;;15.10;99.90;;;;;;5074402;28;20383;-27
2021/01/11 01:01:14;;;;;;;100.07;80.80;;;15.10;99.90;;;;;;5073884;28;20029;-27
2021/01/11 01:03:41;;;;;;;102.90;81.20;;;15.00;99.90;;;;;;5074092;28;20017;-25
2021/01/11 01:06:09;;;;;;;101.53;79.90;;;15.00;99.90;;;;;;5073008;28;20089;-25
2021/01/11 01:08:35;;;;;;;100.35;80.55;;;15.00;99.90;;;;;;5073111;28;20020;-26
2021/01/11 01:11:01;;;;;;;99.07;79.45;;;15.00;99.90;;;;;;5073592;28;20386;-25
2021/01/11 01:13:27;;;;;;;98.10;79.03;;;15.00;99.90;;;;;;5074157;28;20425;-25
2021/01/11 01:15:53;;;;;;;100.20;79.10;;;15.00;99.90;;;;;;5073209;28;20040;-25
2021/01/11 01:18:19;;;;;;;98.60;78.50;;;14.90;99.90;;;;;;5072832;28;20028;-25
2021/01/11 01:20:45;;;;;;;100.90;78.93;;;14.90;99.90;;;;;;5073150;28;20032;-25
2021/01/11 01:23:10;;;;;;;93.18;75.95;;;14.90;99.90;;;;;;5072790;28;20467;-25
2021/01/11 01:25:36;;;;;;;95.55;76.60;;;14.90;99.90;;;;;;5073075;28;20029;-25
2021/01/11 01:28:02;;;;;;;96.85;75.82;;;14.90;99.90;;;;;;5072662;28;20095;-26
2021/01/11 01:30:28;;;;;;;98.18;75.93;;;14.90;99.90;;;;;;5071535;28;20040;-25
2021/01/11 01:32:54;;;;;;;94.50;75.05;;;14.80;99.90;;;;;;5072397;28;20037;-25
2021/01/11 01:35:20;;;;;;;96.38;75.00;;;14.90;99.90;;;;;;5072711;28;20530;-25
2021/01/11 01:37:45;;;;;;;88.03;70.65;;;14.90;99.90;;;;;;5073398;28;20056;-25
2021/01/11 01:40:11;;;;;;;94.10;73.75;;;14.80;99.90;;;;;;5074118;28;20059;-25
2021/01/11 01:42:37;;;;;;;92.78;71.93;;;14.80;99.90;;;;;;5073448;28;20458;-25
2021/01/11 01:45:05;;;;;;;92.13;71.15;;;14.80;99.90;;;;;;5074056;28;20090;-26
2021/01/11 01:47:32;;;;;;;90.95;71.22;;;14.80;99.90;;;;;;5073388;28;20040;-26
2021/01/11 01:49:58;;;;;;;91.20;72.13;;;14.80;99.90;;;;;;5073720;28;20082;-25
2021/01/11 01:52:24;;;;;;;90.65;72.20;;;14.80;99.90;;;;;;5072016;28;20036;-25
2021/01/11 01:54:50;;;;;;;88.70;70.50;;;14.80;99.90;;;;;;5073301;28;20020;-25
2021/01/11 01:57:18;;;;;;;92.90;72.47;;;14.70;99.90;;;;;;5073659;28;20027;-25
2021/01/11 01:59:47;;;;;;;86.95;68.28;;;14.70;99.90;;;;;;5073117;28;20025;-25
2021/01/11 02:02:14;;;;;;;89.30;70.22;;;14.70;99.90;;;;;;5073370;28;20386;-26
2021/01/11 02:04:41;;;;;;;88.18;69.25;;;14.70;99.90;;;;;;5073753;28;20103;-25
2021/01/11 02:07:27;;;;;;;88.65;67.03;;;14.70;99.90;;;;;;5073199;28;20494;-25
2021/01/11 02:10:16;;;;;;;84.78;66.70;;;14.60;99.90;;;;;;5072772;28;20040;-25
2021/01/11 02:12:48;;;;;;;85.22;65.80;;;14.60;99.90;;;;;;5073328;28;20032;-25
2021/01/11 02:15:22;;;;;;;84.55;66.00;;;14.60;99.90;;;;;;5073038;28;20474;-25
2021/01/11 02:17:59;;;;;;;80.88;63.70;;;14.60;99.90;;;;;;5072945;28;20028;-25
2021/01/11 02:20:40;;;;;;;82.60;65.10;;;14.60;99.90;;;;;;5073503;28;20466;-25
2021/01/11 02:23:41;;;;;;;81.88;63.85;;;14.60;99.90;;;;;;5072816;28;20039;-25
2021/01/11 02:26:32;;;;;;;83.00;64.88;;;14.60;99.90;;;;;;5072792;28;20099;-25
2021/01/11 02:29:01;;;;;;;77.50;62.38;;;14.60;99.90;;;;;;5072741;28;20033;-25
2021/01/11 02:31:28;;;;;;;81.10;64.38;;;14.60;99.90;;;;;;5070441;28;20045;-25
2021/01/11 02:33:56;;;;;;;81.88;63.40;;;14.50;99.90;;;;;;5072821;28;20478;-25
2021/01/11 02:36:22;;;;;;;79.50;63.30;;;14.50;99.90;;;;;;5072506;28;20032;-25
2021/01/11 02:38:50;;;;;;;79.28;62.10;;;14.50;99.90;;;;;;5073207;28;20029;-25
2021/01/11 02:41:16;;;;;;;75.55;59.70;;;14.50;99.90;;;;;;5072689;28;20036;-25
2021/01/11 02:43:42;;;;;;;72.65;58.40;;;14.50;99.90;;;;;;5073006;28;20055;-25
2021/01/11 02:46:08;;;;;;;76.75;59.60;;;14.50;99.90;;;;;;5072642;28;20025;-25
2021/01/11 02:48:55;;;;;;;73.45;57.80;;;14.50;99.90;;;;;;5072697;28;20091;-25
2021/01/11 02:52:09;;;;;;;75.78;59.45;;;14.40;99.90;;;;;;5072866;28;20025;-25
2021/01/11 02:54:40;;;;;;;73.85;58.47;;;14.40;99.90;;;;;;5052940;28;20098;-25
2021/01/11 02:57:32;;;;;;;73.43;56.65;;;14.50;99.90;;;;;;5072838;28;20042;-25
2021/01/11 03:00:02;;;;;;;74.32;58.10;;;14.40;99.90;;;;;;5071655;28;20399;-25
2021/01/11 03:02:31;;;;;;;73.22;56.83;;;14.40;99.90;;;;;;5072605;28;20033;-25
2021/01/11 03:04:57;;;;;;;73.35;57.13;;;14.40;99.90;;;;;;5070490;28;20379;-25
2021/01/11 03:07:23;;;;;;;71.72;57.55;;;14.40;99.90;;;;;;5072661;28;20103;-25
2021/01/11 03:09:49;;;;;;;71.40;55.75;;;14.40;99.90;;;;;;5072446;28;20041;-26
2021/01/11 03:12:16;;;;;;;74.15;57.30;;;14.40;99.90;;;;;;5072830;28;20036;-25
2021/01/11 03:14:42;;;;;;;70.85;54.97;;;14.40;99.90;;;;;;5072366;28;20028;-25
2021/01/11 03:17:08;;;;;;;70.72;54.88;;;14.40;99.90;;;;;;5072585;28;20100;-25
2021/01/11 03:19:34;;;;;;;73.63;56.80;;;14.40;99.90;;;;;;5071043;28;20168;-25
2021/01/11 03:22:00;;;;;;;69.32;55.13;;;14.40;99.90;;;;;;5072566;28;20032;-25
2021/01/11 03:24:27;;;;;;;72.00;55.30;;;14.40;99.90;;;;;;5072253;28;20031;-25
2021/01/11 03:26:56;;;;;;;67.38;54.03;;;14.30;99.90;;;;;;5072784;28;20025;-25
2021/01/11 03:29:22;;;;;;;69.18;53.53;;;14.30;99.90;;;;;;5072984;28;20024;-25
2021/01/11 03:31:48;;;;;;;68.90;52.38;;;14.30;99.90;;;;;;5076260;28;20035;-25
2021/01/11 03:34:14;;;;;;;65.47;51.83;;;14.30;99.90;;;;;;5076108;28;20103;-25
2021/01/11 03:36:40;;;;;;;66.97;53.47;;;14.30;99.90;;;;;;5076616;28;20031;-25
2021/01/11 03:39:08;;;;;;;66.85;51.97;;;14.30;99.90;;;;;;5075682;28;20023;-25
2021/01/11 03:41:39;;;;;;;66.57;51.95;;;14.20;99.90;;;;;;5055867;28;20032;-25
2021/01/11 03:44:05;;;;;;;64.53;51.33;;;14.30;99.90;;;;;;5055774;28;20033;-26
2021/01/11 03:46:31;;;;;;;66.13;52.40;;;14.20;99.90;;;;;;5074888;28;20029;-25
2021/01/11 03:48:57;;;;;;;66.53;51.28;;;14.20;99.90;;;;;;5074787;28;20070;-26
2021/01/11 03:51:23;;;;;;;62.10;48.20;;;14.20;99.90;;;;;;5074608;28;20028;-26
2021/01/11 03:53:49;;;;;;;65.38;51.10;;;14.20;99.90;;;;;;5074752;28;20025;-26
2021/01/11 03:56:15;;;;;;;63.22;49.30;;;14.20;99.90;;;;;;5074628;28;20020;-26
2021/01/11 03:58:41;;;;;;;60.80;48.83;;;14.20;99.90;;;;;;5075163;28;20031;-26
2021/01/11 04:01:07;;;;;;;62.40;48.70;;;14.20;99.90;;;;;;5075415;28;20378;-26
2021/01/11 04:03:33;;;;;;;64.13;49.22;;;14.20;99.90;;;;;;5075079;28;20033;-26
2021/01/11 04:05:59;;;;;;;59.95;46.30;;;14.20;99.90;;;;;;5075019;28;20035;-26
2021/01/11 04:08:25;;;;;;;66.03;48.17;;;14.20;99.90;;;;;;5075451;28;20103;-26
2021/01/11 04:10:52;;;;;;;62.60;48.80;;;14.20;99.90;;;;;;5075685;28;20052;-25
2021/01/11 04:13:18;;;;;;;61.65;49.00;;;14.20;99.90;;;;;;5075433;28;20371;-26
2021/01/11 04:15:45;;;;;;;60.30;47.95;;;14.10;99.90;;;;;;5075720;28;20069;-26
2021/01/11 04:18:11;;;;;;;60.67;47.53;;;14.20;99.90;;;;;;5073902;28;20017;-26
2021/01/11 04:20:37;;;;;;;59.25;45.92;;;14.10;99.90;;;;;;5073240;28;20091;-26
2021/01/11 04:23:04;;;;;;;58.70;46.03;;;14.10;99.90;;;;;;5075252;28;20052;-25
2021/01/11 04:25:30;;;;;;;59.20;46.07;;;14.10;99.90;;;;;;5075032;28;20060;-26
2021/01/11 04:27:57;;;;;;;57.25;45.53;;;14.10;99.90;;;;;;5073781;28;20268;-26
2021/01/11 04:30:24;;;;;;;60.95;46.22;;;14.10;99.90;;;;;;5074867;28;20043;-26
2021/01/11 04:32:51;;;;;;;53.55;42.53;;;14.10;99.90;;;;;;5073963;28;20037;-25
2021/01/11 04:35:19;;;;;;;57.65;45.42;;;14.10;99.90;;;;;;5074022;28;20020;-26
2021/01/11 04:37:45;;;;;;;55.83;44.45;;;14.10;99.90;;;;;;5074902;28;20436;-26
2021/01/11 04:40:12;;;;;;;55.20;44.45;;;14.10;99.90;;;;;;5074121;28;20514;-26
2021/01/11 04:42:47;;;;;;;54.13;42.72;;;14.10;99.90;;;;;;5074823;28;20104;-26
2021/01/11 04:45:20;;;;;;;54.80;43.13;;;14.10;99.90;;;;;;5074433;28;20043;-26
2021/01/11 04:47:58;;;;;;;55.17;43.17;;;14.10;99.90;;;;;;5074814;28;20025;-26
2021/01/11 04:50:25;;;;;;;52.13;41.95;;;14.10;99.90;;;;;;5074516;28;20037;-26
2021/01/11 04:52:52;;;;;;;54.42;43.17;;;14.10;99.90;;;;;;5074265;28;20016;-26
2021/01/11 04:55:18;;;;;;;54.35;42.80;;;14.10;99.90;;;;;;5073453;28;20025;-26
2021/01/11 04:57:52;;;;;;;54.20;43.33;;;14.10;99.90;;;;;;5073668;28;20016;-26
2021/01/11 05:00:25;;;;;;;53.55;41.63;;;14.10;99.90;;;;;;5073382;28;20028;-27
2021/01/11 05:03:00;;;;;;;51.90;40.60;;;14.10;99.90;;;;;;5073885;28;20029;-26
2021/01/11 05:05:28;;;;;;;55.33;42.83;;;14.10;99.90;;;;;;5073410;28;20032;-26
2021/01/11 05:07:54;;;;;;;54.40;41.80;;;14.00;99.90;;;;;;5074235;28;20103;-26
2021/01/11 05:10:28;;;;;;;50.42;39.67;;;14.10;99.90;;;;;;5074173;28;20478;-26
2021/01/11 05:12:58;;;;;;;54.05;40.05;;;14.00;99.90;;;;;;5074353;28;20363;-26
2021/01/11 05:15:26;;;;;;;49.10;39.10;;;14.00;99.90;;;;;;5074253;28;20482;-26
2021/01/11 05:17:53;;;;;;;;;;;14.00;99.90;;;;;;5074937;28;20375;-26
2021/01/11 05:20:31;;;;;;;50.47;39.58;;;14.10;99.90;;;;;;5074135;28;19966;-26
2021/01/11 05:22:59;;;;;;;54.30;40.38;;;14.00;99.90;;;;;;5074570;28;20359;-25
2021/01/11 05:25:26;;;;;;;;;;;14.10;99.90;;;;;;5074550;28;20033;-25
2021/01/11 05:28:12;;;;;;;49.72;38.28;;;14.10;99.90;;;;;;5073986;28;19955;-25
2021/01/11 05:30:51;;;;;;;47.58;38.05;;;14.00;99.90;;;;;;5073766;28;20671;-26
2021/01/11 05:33:18;;;;;;;49.72;38.17;;;14.00;99.90;;;;;;5074121;28;20060;-26
2021/01/11 05:35:45;;;;;;;49.20;38.88;;;14.00;99.90;;;;;;5074025;28;20040;-26
2021/01/11 05:38:19;;;;;;;47.95;37.97;;;14.00;99.90;;;;;;5072911;28;20056;-26
2021/01/11 05:40:48;;;;;;;48.30;37.15;;;14.00;99.90;;;;;;5073702;28;20032;-26
2021/01/11 05:43:21;;;;;;;46.88;37.42;;;14.00;99.90;;;;;;5073842;28;20095;-26
2021/01/11 05:45:48;;;;;;;49.95;38.33;;;14.00;99.90;;;;;;5073677;28;20052;-26
2021/01/11 05:48:16;;;;;;;45.63;36.08;;;14.00;99.90;;;;;;5071168;28;20016;-26
2021/01/11 05:50:49;;;;;;;47.90;38.65;;;13.90;99.90;;;;;;5073358;28;20029;-26
2021/01/11 05:53:20;;;;;;;50.63;38.50;;;13.90;99.90;;;;;;5072751;28;20436;-26
2021/01/11 05:55:47;;;;;;;47.85;38.53;;;13.90;99.90;;;;;;5073370;28;20059;-26
2021/01/11 05:58:14;;;;;;;54.20;41.03;;;13.90;99.90;;;;;;5073137;28;20035;-26
2021/01/11 06:00:41;;;;;;;57.20;43.92;;;13.90;99.90;;;;;;5072825;28;20146;-26
2021/01/11 06:03:10;;;;;;;57.20;46.13;;;13.90;99.90;;;;;;5073163;28;20020;-26
2021/01/11 06:05:36;;;;;;;65.13;49.78;;;13.90;99.90;;;;;;5072968;28;20020;-26
2021/01/11 06:08:05;;;;;;;66.63;50.10;;;13.90;99.90;;;;;;5067452;28;20100;-26
2021/01/11 06:10:31;;;;;;;68.38;53.75;;;13.90;99.90;;;;;;5072829;28;20025;-26
2021/01/11 06:12:57;;;;;;;70.10;53.45;;;13.90;99.90;;;;;;5071784;28;20474;-26
2021/01/11 06:15:26;;;;;;;73.28;55.70;;;13.90;99.90;;;;;;5073302;28;20490;-26
2021/01/11 06:17:56;;;;;;;75.20;60.50;;;13.90;99.90;;;;;;5073289;28;20493;-26
2021/01/11 06:20:25;;;;;;;79.40;62.40;;;13.90;99.90;;;;;;5073356;28;20017;-26
2021/01/11 06:22:51;;;;;;;80.50;63.45;;;13.90;99.90;;;;;;5073346;28;20035;-26
2021/01/11 06:25:20;;;;;;;85.13;65.72;;;13.90;99.90;;;;;;5073017;28;20024;-26
2021/01/11 06:27:58;;;;;;;83.78;65.00;;;13.90;99.90;;;;;;5073858;28;20386;-26
2021/01/11 06:30:33;;;;;;;83.85;66.88;;;13.90;99.90;;;;;;5072895;28;20063;-26
2021/01/11 06:33:14;;;;;;;85.28;68.68;;;13.90;99.90;;;;;;5073153;28;20390;-26
2021/01/11 06:35:47;;;;;;;91.43;72.70;;;13.90;99.90;;;;;;5073064;28;20051;-26
2021/01/11 06:38:18;;;;;;;95.53;73.53;;;13.90;99.90;;;;;;5072987;28;20021;-26
2021/01/11 06:41:07;;;;;;;93.38;73.20;;;13.90;99.90;;;;;;5073163;28;20347;-26
2021/01/11 06:43:47;;;;;;;93.68;74.93;;;13.90;99.90;;;;;;5069805;28;20032;-26
2021/01/11 06:46:29;;;;;;;99.32;77.68;;;13.90;99.90;;;;;;5072985;28;20035;-26
2021/01/11 06:49:00;;;;;;;95.05;76.03;;;13.80;99.90;;;;;;5073041;28;20031;-25
2021/01/11 06:51:43;;;;;;;104.63;83.30;;;13.90;99.90;;;;;;5072849;28;20035;-26
2021/01/11 06:54:13;;;;;;;101.40;80.10;;;13.80;99.90;;;;;;5072748;28;20021;-26
2021/01/11 06:56:40;;;;;;;106.07;83.88;;;13.80;99.90;;;;;;5071838;28;20360;-26
2021/01/11 06:59:16;;;;;;;106.82;84.80;;;13.90;99.90;;;;;;5072822;28;20028;-26
2021/01/11 07:01:43;;;;;;;108.65;86.25;;;13.90;99.90;;;;;;5072581;28;20048;-26
2021/01/11 07:04:11;;;;;;;109.03;87.60;;;13.90;99.90;;;;;;5074218;28;20026;-26
2021/01/11 07:06:43;;;;;;;114.05;90.53;;;13.90;99.90;;;;;;5069920;28;20033;-26
2021/01/11 07:09:18;;;;;;;116.47;91.78;;;13.90;99.90;;;;;;5090242;28;20024;-26
2021/01/11 07:11:46;;;;;;;113.13;90.28;;;13.90;99.90;;;;;;5078990;28;20120;-26
2021/01/11 07:14:14;;;;;;;115.32;92.95;;;13.90;99.90;;;;;;5076863;28;20494;-26
2021/01/11 07:16:42;;;;;;;125.88;98.05;;;13.90;99.90;;;;;;5076015;28;20032;-26
2021/01/11 07:19:08;;;;;;;;;;;13.90;99.90;;;;;;5077076;28;20111;-26
2021/01/11 07:21:38;;;;;;;122.47;95.70;;;13.90;99.90;;;;;;5077251;28;19912;-26
2021/01/11 07:24:05;;;;;;;413.83;319.15;;;14.00;99.90;;;;;;5076418;28;20029;-26
2021/01/11 07:26:33;;;;;;;372.50;285.48;;;13.90;99.90;;;;;;5073825;28;20033;-26
2021/01/11 07:29:12;;;;;;;398.00;312.48;;;13.90;99.90;;;;;;5067970;28;20033;-26
2021/01/11 07:31:41;;;;;;;395.10;305.15;;;13.90;99.90;;;;;;5075856;28;20117;-26
2021/01/11 07:34:10;;;;;;;374.45;293.67;;;13.90;99.90;;;;;;5075774;28;20025;-26
2021/01/11 07:36:43;;;;;;;368.80;288.92;;;14.00;99.90;;;;;;5076214;28;20027;-26
2021/01/11 07:39:27;;;;;;;360.45;282.23;;;14.00;99.90;;;;;;5075970;28;20021;-26
2021/01/11 07:42:00;;;;;;;354.67;279.67;;;14.00;99.90;;;;;;5075860;28;20028;-26
2021/01/11 07:44:36;;;;;;;342.33;273.27;;;14.00;99.90;;;;;;5075690;28;20032;-26
2021/01/11 07:47:06;;;;;;;338.73;271.80;;;14.10;99.90;;;;;;5075796;28;20359;-26
2021/01/11 07:49:36;;;;;;;341.08;265.35;;;14.10;99.90;;;;;;5065063;28;20057;-27
2021/01/11 07:52:05;;;;;;;331.60;267.08;;;14.10;99.90;;;;;;5069616;28;20063;-26
2021/01/11 07:54:31;;;;;;;560.70;461.55;;;14.10;99.90;;;;;;5056694;28;20104;-25
2021/01/11 07:56:58;;;;;;;702.10;579.80;;;14.00;99.90;;;;;;5070880;28;20543;-26
2021/01/11 07:59:24;;;;;;;596.05;494.55;;;14.00;99.90;;;;;;5070220;28;20037;-26
2021/01/11 08:01:50;;;;;;;583.75;485.77;;;14.10;99.90;;;;;;5073699;28;20100;-26
2021/01/11 08:04:17;;;;;;;566.90;475.75;;;14.10;99.90;;;;;;5074104;28;20030;-27
2021/01/11 08:06:54;;;;;;;568.63;470.57;;;14.20;99.90;;;;;;5061602;28;20044;-26
2021/01/11 08:09:29;;;;;;;544.78;451.92;;;14.20;99.90;;;;;;5066791;28;20029;-27
2021/01/11 08:12:05;;;;;;;531.80;441.02;;;14.20;99.90;;;;;;5073570;28;20766;-28
2021/01/11 08:14:31;;;;;;;527.42;432.23;;;14.20;99.90;;;;;;5071744;28;20566;-27
2021/01/11 08:16:58;;;;;;;521.45;431.45;;;14.30;99.90;;;;;;5067616;28;20021;-29
2021/01/11 08:19:24;;;;;;;507.30;421.85;;;14.30;99.90;;;;;;5071983;28;20040;-28
2021/01/11 08:22:01;;;;;;;490.75;410.58;;;14.30;99.90;;;;;;5068837;28;20032;-28
2021/01/11 08:24:28;;;;;;;490.17;402.15;;;14.30;99.90;;;;;;5068008;28;20605;-26
2021/01/11 08:27:00;;;;;;;485.45;402.90;;;14.30;99.90;;;;;;5055361;28;20033;-27
2021/01/11 08:29:28;;;;;;;464.65;383.17;;;14.30;99.90;;;;;;5061578;28;20043;-26
2021/01/11 08:31:55;;;;;;;467.38;381.95;;;14.30;99.90;;;;;;5070205;28;20396;-27
2021/01/11 08:34:21;;;;;;;456.98;376.10;;;14.40;99.90;;;;;;5064964;28;20153;-27
2021/01/11 08:36:47;;;;;;;457.52;375.23;;;14.30;99.90;;;;;;5068010;28;20103;-24
2021/01/11 08:39:16;;;;;;;451.95;367.90;;;14.40;99.90;;;;;;5072916;28;20048;-24
2021/01/11 08:41:54;;;;;;;446.60;365.73;;;14.40;99.90;;;;;;5068681;28;20041;-24
2021/01/11 08:44:32;;;;;;;447.00;359.70;;;14.40;99.90;;;;;;5061068;28;20505;-24
2021/01/11 08:47:03;;;;;;;439.88;354.20;;;14.40;99.90;;;;;;5063971;28;20175;-25
2021/01/11 08:49:30;;;;;;;423.45;337.10;;;14.40;99.90;;;;;;5073097;28;20033;-24
2021/01/11 08:52:11;;;;;;;418.63;339.27;;;14.40;99.90;;;;;;5072324;28;20025;-25
2021/01/11 08:54:38;;;;;;;415.10;334.10;;;14.50;99.90;;;;;;5073033;28;20413;-25
2021/01/11 08:57:12;;;;;;;410.33;334.83;;;14.50;99.90;;;;;;5073676;28;20031;-25
2021/01/11 08:59:47;;;;;;;404.33;317.90;;;14.60;99.90;;;;;;5068618;28;20036;-25
2021/01/11 09:02:26;;;;;;;398.85;315.15;;;14.60;99.90;;;;;;5089929;28;20028;-23
2021/01/11 09:04:53;;;;;;;388.33;307.50;;;14.60;99.90;;;;;;5072482;28;20114;-23
2021/01/11 09:07:27;;;;;;;321.77;257.38;;;14.60;99.90;;;;;;5073110;28;20020;-24
2021/01/11 09:09:52;;;;;;;257.38;205.70;;;14.50;99.90;;;;;;5073206;28;20047;-25
2021/01/11 09:12:31;;;;;;;242.45;190.52;;;14.60;99.90;;;;;;5070697;28;20028;-24
2021/01/11 09:14:57;;;;;;;235.40;183.00;;;14.60;99.90;;;;;;5074090;28;20402;-25
2021/01/11 09:17:28;;;;;;;225.95;177.18;;;14.70;99.90;;;;;;5073906;28;20543;-25
2021/01/11 09:19:54;;;;;;;215.10;172.80;;;14.80;99.90;;;;;;5074566;28;20020;-24
2021/01/11 09:22:39;;;;;;;207.57;166.18;;;14.90;99.90;;;;;;5072483;28;20055;-24
2021/01/11 09:25:09;;;;;;;205.77;164.02;;;14.90;99.90;;;;;;5073217;28;20058;-25
2021/01/11 09:27:36;;;;;;;192.38;155.75;;;15.10;99.90;;;;;;5072294;28;20048;-25
2021/01/11 09:30:03;;;;;;;188.88;148.80;;;15.10;99.90;;;;;;5073721;28;20120;-25
2021/01/11 09:32:29;;;;;;;186.23;146.60;;;15.20;99.90;;;;;;5074065;28;20036;-25
2021/01/11 09:34:55;;;;;;;197.20;149.15;;;15.30;99.90;;;;;;5073344;28;20036;-25
2021/01/11 09:37:21;;;;;;;216.68;163.73;;;15.30;99.90;;;;;;5072987;28;20074;-25
2021/01/11 09:39:46;;;;;;;140.20;109.35;;;15.20;99.90;;;;;;5072699;28;20100;-25
2021/01/11 09:42:13;;;;;;;170.32;131.38;;;15.20;99.90;;;;;;5071253;28;20024;-25
2021/01/11 09:44:42;;;;;;;115.88;91.40;;;15.20;99.90;;;;;;5071428;28;20032;-25
2021/01/11 09:47:08;;;;;;;87.68;65.55;;;15.10;99.90;;;;;;5073170;28;20438;-25
2021/01/11 09:49:34;;;;;;;52.67;38.70;;;15.00;99.90;;;;;;5069564;28;20454;-25
2021/01/11 09:52:00;;;;;;;52.25;39.58;;;15.00;99.90;;;;;;5072076;28;20093;-26
2021/01/11 09:54:27;;;;;;;49.15;35.97;;;14.90;99.90;;;;;;5071266;28;20024;-29
2021/01/11 09:56:53;;;;;;;44.75;31.85;;;14.90;99.90;;;;;;5076824;28;20069;-29
2021/01/11 09:59:18;;;;;;;35.60;23.75;;;14.90;99.90;;;;;;5071253;28;20032;-29
2021/01/11 10:01:47;;;;;;;17.23;13.60;;;14.80;99.90;;;;;;5073311;28;20025;-29
2021/01/11 10:04:14;;;;;;;14.45;11.73;;;14.80;99.90;;;;;;5072406;28;20108;-29
2021/01/11 10:06:45;;;;;;;16.27;12.70;;;14.80;99.90;;;;;;5073770;28;20474;-29
2021/01/11 10:09:12;;;;;;;17.80;10.52;;;14.70;99.90;;;;;;5073667;28;20029;-29
2021/01/11 10:11:39;;;;;;;11.20;9.57;;;14.50;99.90;;;;;;5073466;28;20017;-30
2021/01/11 10:14:06;;;;;;;13.23;7.05;;;14.60;99.90;;;;;;5073722;28;20021;-29
2021/01/11 10:16:32;;;;;;;10.70;7.88;;;14.50;99.90;;;;;;5073349;28;20478;-29
2021/01/11 10:18:58;;;;;;;8.88;6.65;;;14.50;99.90;;;;;;5073618;28;20032;-29
2021/01/11 10:21:26;;;;;;;10.43;6.40;;;14.50;99.90;;;;;;5072510;28;20037;-29
2021/01/11 10:23:52;;;;;;;8.63;6.30;;;14.50;99.90;;;;;;5072742;28;20111;-29
2021/01/11 10:26:22;;;;;;;7.82;5.72;;;14.40;99.90;;;;;;5073241;28;20029;-29
2021/01/11 10:28:49;;;;;;;10.02;5.97;;;14.40;99.90;;;;;;5073108;28;20108;-29
2021/01/11 10:31:19;;;;;;;7.32;5.90;;;14.40;99.90;;;;;;5073132;28;20080;-29
2021/01/11 10:33:46;;;;;;;7.88;6.15;;;14.40;99.90;;;;;;5073142;28;20063;-29
2021/01/11 10:36:13;;;;;;;9.38;7.55;;;14.40;99.90;;;;;;5073225;28;20029;-29
2021/01/11 10:38:40;;;;;;;8.97;6.53;;;14.20;99.90;;;;;;5072278;28;20021;-29
2021/01/11 10:41:06;;;;;;;18.88;13.23;;;14.10;99.90;;;;;;5072981;28;20462;-29
2021/01/11 10:43:33;;;;;;;13.77;10.80;;;14.10;99.90;;;;;;5072901;28;20021;-29
2021/01/11 10:46:00;;;;;;;17.88;13.65;;;14.10;99.90;;;;;;5072579;28;20021;-29
2021/01/11 10:48:27;;;;;;;20.15;12.43;;;14.10;99.90;;;;;;5073054;28;20024;-29
2021/01/11 10:50:53;;;;;;;14.32;10.63;;;14.30;99.90;;;;;;5072893;28;20020;-29
2021/01/11 10:53:19;;;;;;;17.02;11.15;;;14.30;99.90;;;;;;5072971;28;20075;-29
2021/01/11 10:55:45;;;;;;;23.52;18.05;;;14.40;99.90;;;;;;5072871;28;20108;-30
2021/01/11 10:58:10;;;;;;;23.55;18.80;;;14.40;99.90;;;;;;5073414;28;20028;-29
2021/01/11 11:00:37;;;;;;;27.05;19.52;;;14.40;99.90;;;;;;5073227;28;20519;-29
2021/01/11 11:03:06;;;;;;;22.95;18.83;;;14.50;99.90;;;;;;5072900;28;20021;-29
2021/01/11 11:05:31;;;;;;;31.98;21.00;;;14.60;99.90;;;;;;5073082;28;20405;-35
2021/01/11 11:07:57;;;;;;;47.67;23.10;;;14.60;99.90;;;;;;5072703;28;20032;-36
2021/01/11 11:10:24;;;;;;;32.10;22.75;;;14.70;99.90;;;;;;5068429;28;20150;-36
2021/01/11 11:12:50;;;;;;;32.03;20.77;;;14.70;99.90;;;;;;5070343;28;20510;-36
2021/01/11 11:15:17;;;;;;;27.08;20.08;;;14.80;99.90;;;;;;5072739;28;20033;-36
2021/01/11 11:17:43;;;;;;;25.25;19.30;;;14.90;99.90;;;;;;5072769;28;20373;-36
2021/01/11 11:20:09;;;;;;;28.35;21.55;;;14.90;99.90;;;;;;5073018;28;20029;-36
2021/01/11 11:22:35;;;;;;;25.95;19.05;;;15.00;99.90;;;;;;5072074;28;20040;-36
2021/01/11 11:25:06;;;;;;;23.38;18.00;;;14.90;99.90;;;;;;5072085;28;20035;-37
2021/01/11 11:27:36;;;;;;;23.55;18.35;;;15.00;99.90;;;;;;5073108;28;20424;-36
2021/01/11 11:30:05;;;;;;;16.90;14.23;;;15.00;99.90;;;;;;5072875;28;20037;-37
2021/01/11 11:32:34;;;;;;;18.88;14.45;;;15.00;99.90;;;;;;5071387;28;20032;-36
2021/01/11 11:35:00;;;;;;;19.40;14.40;;;15.10;99.90;;;;;;5071953;28;20035;-36
2021/01/11 11:37:26;;;;;;;14.15;11.40;;;15.10;99.90;;;;;;5071941;28;20039;-36
2021/01/11 11:39:52;;;;;;;13.57;10.65;;;15.10;99.90;;;;;;5072428;28;20025;-36
2021/01/11 11:42:18;;;;;;;14.35;10.20;;;15.20;99.90;;;;;;5072509;28;20025;-36
2021/01/11 11:44:44;;;;;;;15.05;10.80;;;15.20;99.90;;;;;;5073001;28;20440;-36
2021/01/11 11:47:10;;;;;;;14.93;9.65;;;15.30;99.90;;;;;;5071204;28;20127;-37
2021/01/11 11:49:35;;;;;;;12.63;8.82;;;15.20;99.90;;;;;;5073281;28;20025;-37
2021/01/11 11:52:01;;;;;;;11.90;8.23;;;15.30;99.90;;;;;;5075668;28;20036;-35
2021/01/11 11:54:27;;;;;;;11.00;8.05;;;15.30;99.90;;;;;;5076151;28;20352;-35
2021/01/11 11:56:53;;;;;;;22.08;9.60;;;15.30;99.90;;;;;;5075825;28;20038;-36
2021/01/11 11:59:19;;;;;;;13.88;10.65;;;15.30;99.90;;;;;;5075730;28;20036;-36
2021/01/11 12:01:45;;;;;;;14.30;9.65;;;15.20;99.90;;;;;;5074742;28;20031;-36
2021/01/11 12:04:11;;;;;;;9.90;7.97;;;15.30;99.90;;;;;;5075813;28;20086;-37
2021/01/11 12:06:41;;;;;;;18.02;9.10;;;15.40;99.90;;;;;;5075519;28;20029;-36
2021/01/11 12:09:08;;;;;;;14.27;8.27;;;15.40;99.90;;;;;;5075970;28;20024;-36
2021/01/11 12:11:44;;;;;;;13.02;9.40;;;15.50;99.90;;;;;;5075529;28;20046;-37
2021/01/11 12:14:11;;;;;;;13.82;10.30;;;15.80;99.90;;;;;;5075601;28;20428;-36
2021/01/11 12:16:37;;;;;;;19.10;11.18;;;16.00;99.90;;;;;;5074440;28;20047;-36
2021/01/11 12:19:03;;;;;;;19.33;11.15;;;16.10;99.90;;;;;;5075123;28;20016;-36
2021/01/11 12:21:34;;;;;;;15.80;10.38;;;16.30;99.90;;;;;;5075818;28;20059;-37
2021/01/11 12:24:01;;;;;;;19.02;12.23;;;16.60;99.90;;;;;;5076782;28;20024;-36
2021/01/11 12:26:27;;;;;;;13.30;9.70;;;16.80;99.90;;;;;;5074791;28;20036;-37
2021/01/11 12:28:54;;;;;;;14.65;9.48;;;16.90;99.90;;;;;;5074617;28;20063;-36
2021/01/11 12:31:29;;;;;;;17.17;9.27;;;17.00;99.90;;;;;;5075152;28;20037;-36
2021/01/11 12:33:55;;;;;;;17.58;8.60;;;17.00;99.90;;;;;;5074928;28;20090;-36